Andiamo — WDF6325 — position and weather

sailwx.info

Track history (hours):
 
Tides and Currents Weather Stations Pressure Air Temp Water Temp Dewpoint Dewpoint Depression Visibility Wind Speed Wind Dir Waves Ship Positions

Andiamo

Owner: Andiamo Adventures LLC, Marathon, FL. More information available from US FCC via Universal Licensing System and Coast Guard Vessel Documentation Center.

Last reported at 2017-Nov-10 00:59 UTC. Time now 2017-Nov-19 06:59 UTC.
Position N 26°08' W 080°07'.
Warning: this ship's position is 9 days out of date.

Length 26 m.

Type: Pleasure craft. MMSI: 367473070.

Date/timePositionNaut miles runAvg speedWind from/ knotsBaromVisibWave heightAir tempDewpointWater temp
2017-Nov-10 00:59N 26°08' W 080°07'1 2.9
2017-Nov-10 00:30N 26°07' W 080°07'2 4.5
2017-Nov-10 00:00N 26°08' W 080°05'48 7.5
2017-Nov-09 17:37N 26°56' W 080°02'110.4
2017-Nov-09 17:30N 26°57' W 080°02'  
2017-Nov-04 14:15N 26°08' W 080°07'0 1.1
2017-Nov-04 13:59N 26°08' W 080°07'2 4.1
2017-Nov-04 13:30N 26°06' W 080°07'0 0.0
2017-Nov-04 00:35N 26°06' W 080°07'0 5.8
2017-Nov-04 00:31N 26°07' W 080°07'1 2.3
2017-Nov-03 23:58N 26°08' W 080°07'  
Track history (hours):
 
Tides and Currents Weather Stations Pressure Air Temp Water Temp Dewpoint Dewpoint Depression Visibility Wind Speed Wind Dir Waves Ship Positions

Andiamo

Owner: Andiamo Adventures LLC, Marathon, FL. More information available from US FCC via Universal Licensing System and Coast Guard Vessel Documentation Center.

Last reported at 2017-Nov-10 00:59 UTC. Time now 2017-Nov-19 06:59 UTC.
Position N 26°08' W 080°07'.
Warning: this ship's position is 9 days out of date.

Length 26 m.

Type: Pleasure craft. MMSI: 367473070.

Date/timePositionNaut miles runAvg speedWind from/ knotsBaromVisibWave heightAir tempDewpointWater temp
2017-Nov-10 00:59N 26°08' W 080°07'1 2.9
2017-Nov-10 00:30N 26°07' W 080°07'2 4.5
2017-Nov-10 00:00N 26°08' W 080°05'48 7.5
2017-Nov-09 17:37N 26°56' W 080°02'110.4
2017-Nov-09 17:30N 26°57' W 080°02'  
2017-Nov-04 14:15N 26°08' W 080°07'0 1.1
2017-Nov-04 13:59N 26°08' W 080°07'2 4.1
2017-Nov-04 13:30N 26°06' W 080°07'0 0.0
2017-Nov-04 00:35N 26°06' W 080°07'0 5.8
2017-Nov-04 00:31N 26°07' W 080°07'1 2.3
2017-Nov-03 23:58N 26°08' W 080°07'  

Dump ship's entire track history